createdAt,value
2018-08-16T00:00:23.869Z,18.20
2018-08-16T00:02:53.149Z,18.19
2018-08-16T00:05:21.915Z,18.31
2018-08-16T00:07:50.772Z,18.17
2018-08-16T00:10:20.013Z,18.20
2018-08-16T00:12:49.862Z,18.33
2018-08-16T00:15:20.035Z,18.51
2018-08-16T00:17:48.875Z,18.57
2018-08-16T00:20:17.776Z,18.56
2018-08-16T00:22:47.245Z,18.49
2018-08-16T00:25:16.741Z,18.36
2018-08-16T00:27:45.655Z,18.14
2018-08-16T00:30:17.901Z,18.00
2018-08-16T00:32:47.241Z,17.88
2018-08-16T00:35:16.181Z,17.85
2018-08-16T00:37:45.231Z,18.08
2018-08-16T00:40:17.565Z,18.20
2018-08-16T00:42:46.360Z,18.16
2018-08-16T00:45:15.576Z,18.13
2018-08-16T00:47:44.636Z,18.14
2018-08-16T00:50:15.006Z,18.22
2018-08-16T00:52:43.831Z,18.30
2018-08-16T00:55:14.220Z,18.36
2018-08-16T00:57:43.515Z,18.43
2018-08-16T01:00:17.922Z,18.11
2018-08-16T01:02:47.188Z,18.15
2018-08-16T01:05:16.034Z,18.06
2018-08-16T01:07:44.821Z,17.86
2018-08-16T01:10:14.669Z,17.76
2018-08-16T01:12:44.328Z,17.64
2018-08-16T01:15:16.243Z,17.49
2018-08-16T01:17:45.072Z,17.58
2018-08-16T01:20:13.933Z,17.61
2018-08-16T01:22:43.036Z,17.80
2018-08-16T01:25:12.608Z,17.85
2018-08-16T01:27:41.503Z,17.76
2018-08-16T01:30:11.238Z,17.66
2018-08-16T01:32:40.063Z,17.59
2018-08-16T01:35:09.948Z,17.67
2018-08-16T01:37:39.212Z,17.79
2018-08-16T01:40:09.233Z,17.85
2018-08-16T01:42:38.849Z,17.73
2018-08-16T01:45:08.145Z,17.62
2018-08-16T01:47:36.964Z,17.44
2018-08-16T01:50:07.620Z,17.38
2018-08-16T01:52:36.340Z,17.62
2018-08-16T01:55:05.931Z,17.64
2018-08-16T01:57:35.178Z,17.54
2018-08-16T02:00:05.630Z,17.54
2018-08-16T02:02:34.440Z,17.47
2018-08-16T02:05:03.806Z,17.42
2018-08-16T02:07:32.654Z,17.28
2018-08-16T02:10:01.640Z,17.25
2018-08-16T02:12:30.410Z,17.34
2018-08-16T02:14:59.242Z,17.44
2018-08-16T02:17:28.527Z,17.30
2018-08-16T02:19:57.291Z,17.35
2018-08-16T02:22:25.982Z,17.53
2018-08-16T02:24:54.867Z,17.50
2018-08-16T02:27:23.669Z,17.49
2018-08-16T02:29:52.455Z,17.34
2018-08-16T02:32:21.608Z,17.25
2018-08-16T02:34:50.607Z,17.23
2018-08-16T02:37:19.726Z,17.40
2018-08-16T02:39:49.151Z,17.27
2018-08-16T02:42:17.847Z,17.31
2018-08-16T02:44:46.662Z,17.33
2018-08-16T02:47:15.678Z,17.36
2018-08-16T02:49:44.355Z,17.53
2018-08-16T02:52:13.010Z,17.46
2018-08-16T02:54:42.460Z,17.11
2018-08-16T02:57:11.405Z,17.02
2018-08-16T02:59:40.226Z,17.03
2018-08-16T03:02:09.268Z,16.98
2018-08-16T03:04:37.980Z,17.20
2018-08-16T03:07:07.295Z,17.47
2018-08-16T03:09:35.959Z,17.48
2018-08-16T03:12:04.907Z,17.44
2018-08-16T03:14:34.330Z,17.17
2018-08-16T03:17:03.245Z,17.15
2018-08-16T03:19:31.979Z,17.21
2018-08-16T03:22:00.803Z,17.00
2018-08-16T03:24:29.859Z,16.92
2018-08-16T03:26:58.672Z,17.19
2018-08-16T03:29:27.637Z,17.27
2018-08-16T03:31:56.505Z,17.37
2018-08-16T03:34:25.226Z,17.36
2018-08-16T03:36:54.386Z,17.38
2018-08-16T03:39:23.672Z,17.44
2018-08-16T03:41:58.147Z,17.46
2018-08-16T03:44:27.698Z,17.47
2018-08-16T03:46:56.478Z,17.30
2018-08-16T03:49:25.222Z,17.33
2018-08-16T03:51:53.977Z,17.18
2018-08-16T03:54:23.119Z,17.21
2018-08-16T03:56:51.972Z,17.06
2018-08-16T03:59:21.273Z,17.02
2018-08-16T04:01:50.078Z,17.08
2018-08-16T04:04:19.334Z,17.18
2018-08-16T04:06:48.378Z,17.14
2018-08-16T04:09:17.560Z,17.12
2018-08-16T04:11:46.700Z,17.06
2018-08-16T04:14:16.086Z,16.61
2018-08-16T04:16:44.822Z,16.39
2018-08-16T04:19:13.485Z,16.50
2018-08-16T04:21:42.672Z,16.43
2018-08-16T04:24:11.547Z,16.58
2018-08-16T04:26:40.511Z,16.81
2018-08-16T04:29:10.227Z,16.92
2018-08-16T04:31:39.105Z,17.03
2018-08-16T04:34:08.074Z,17.14
2018-08-16T04:36:37.319Z,17.18
2018-08-16T04:39:08.242Z,17.11
2018-08-16T04:41:37.949Z,17.24
2018-08-16T04:44:06.733Z,17.42
2018-08-16T04:46:35.520Z,17.62
2018-08-16T04:49:04.698Z,17.81
2018-08-16T04:51:33.465Z,17.81
2018-08-16T04:54:02.203Z,17.97
2018-08-16T04:56:31.295Z,18.10
2018-08-16T04:59:00.009Z,18.15
2018-08-16T05:01:28.641Z,18.32
2018-08-16T05:03:57.610Z,18.46
2018-08-16T05:06:26.766Z,18.47
2018-08-16T05:08:55.539Z,18.72
2018-08-16T05:11:24.817Z,18.86
2018-08-16T05:13:53.443Z,19.12
2018-08-16T05:16:22.529Z,19.08
2018-08-16T05:18:51.603Z,19.39
2018-08-16T05:21:20.231Z,19.58
2018-08-16T05:23:49.359Z,19.62
2018-08-16T05:26:18.840Z,19.87
2018-08-16T05:28:47.887Z,19.99
2018-08-16T05:31:16.643Z,20.16
2018-08-16T05:33:45.598Z,20.30
2018-08-16T05:36:14.792Z,20.48
2018-08-16T05:38:43.585Z,20.60
2018-08-16T05:41:12.882Z,20.78
2018-08-16T05:43:41.911Z,20.94
2018-08-16T05:46:10.527Z,21.09
2018-08-16T05:48:39.245Z,21.19
2018-08-16T05:51:08.247Z,21.35
2018-08-16T05:53:37.301Z,21.56
2018-08-16T05:56:06.287Z,21.49
2018-08-16T05:58:35.127Z,21.49
2018-08-16T06:01:04.319Z,21.72
2018-08-16T06:03:33.407Z,22.00
2018-08-16T06:06:02.365Z,22.03
2018-08-16T06:08:31.133Z,22.04
2018-08-16T06:10:59.991Z,22.08
2018-08-16T06:13:29.192Z,22.20
2018-08-16T06:15:57.979Z,22.22
2018-08-16T06:18:26.917Z,22.31
2018-08-16T06:20:55.907Z,22.48
2018-08-16T06:23:24.957Z,22.60
2018-08-16T06:25:53.775Z,22.79
2018-08-16T06:28:22.896Z,22.66
2018-08-16T06:30:52.152Z,22.75
2018-08-16T06:33:21.168Z,22.91
2018-08-16T06:35:50.377Z,22.76
2018-08-16T06:38:19.222Z,22.93
2018-08-16T06:40:47.977Z,22.59
2018-08-16T06:43:17.058Z,22.74
2018-08-16T06:45:46.152Z,22.72
2018-08-16T06:48:14.891Z,22.84
2018-08-16T06:50:43.722Z,23.24
2018-08-16T06:53:13.118Z,22.99
2018-08-16T06:55:42.076Z,22.66
2018-08-16T06:58:10.887Z,23.07
2018-08-16T07:00:40.315Z,23.62
2018-08-16T07:03:10.069Z,23.73
2018-08-16T07:05:39.232Z,23.49
2018-08-16T07:08:08.248Z,23.71
2018-08-16T07:10:37.203Z,23.57
2018-08-16T07:13:06.283Z,23.81
2018-08-16T07:15:35.095Z,23.91
2018-08-16T07:18:03.886Z,24.26
2018-08-16T07:20:32.666Z,24.20
2018-08-16T07:23:01.986Z,24.16
2018-08-16T07:25:30.818Z,24.42
2018-08-16T07:27:59.676Z,24.46
2018-08-16T07:30:28.977Z,24.57
2018-08-16T07:32:58.068Z,24.86
2018-08-16T07:35:27.333Z,25.01
2018-08-16T07:37:56.547Z,24.83
2018-08-16T07:40:25.508Z,24.96
2018-08-16T07:42:54.415Z,25.03
2018-08-16T07:45:23.142Z,25.20
2018-08-16T07:47:51.948Z,25.46
2018-08-16T07:50:20.690Z,25.54
2018-08-16T07:52:49.811Z,25.37
2018-08-16T07:55:18.660Z,25.71
2018-08-16T07:57:47.552Z,25.79
2018-08-16T08:00:18.527Z,25.89
2018-08-16T08:02:47.578Z,26.27
2018-08-16T08:05:16.484Z,26.31
2018-08-16T08:07:45.903Z,26.34
2018-08-16T08:10:14.830Z,26.32
2018-08-16T08:12:43.702Z,26.41
2018-08-16T08:15:14.226Z,26.38
2018-08-16T08:17:43.055Z,26.43
2018-08-16T08:20:13.986Z,26.44
2018-08-16T08:22:43.257Z,26.52
2018-08-16T08:25:13.512Z,26.56
2018-08-16T08:27:42.553Z,26.66
2018-08-16T08:30:14.488Z,26.82
2018-08-16T08:32:43.668Z,26.88
2018-08-16T08:35:12.809Z,27.07
2018-08-16T08:38:17.947Z,27.07
2018-08-16T08:40:46.919Z,27.50
2018-08-16T08:44:26.888Z,27.50
2018-08-16T08:46:55.603Z,27.53
2018-08-16T08:49:24.286Z,27.38
2018-08-16T08:51:54.455Z,27.58
2018-08-16T08:54:39.634Z,27.70
2018-08-16T08:57:19.948Z,27.98
2018-08-16T08:59:48.700Z,28.04
2018-08-16T09:02:17.536Z,28.12
2018-08-16T09:04:47.376Z,28.20
2018-08-16T09:07:17.408Z,28.49
2018-08-16T09:11:03.461Z,28.50
2018-08-16T09:13:43.736Z,28.41
2018-08-16T09:16:21.325Z,28.59
2018-08-16T09:18:50.611Z,28.58
2018-08-16T09:21:19.728Z,28.93
2018-08-16T09:23:48.523Z,29.12
2018-08-16T09:26:22.961Z,29.33
2018-08-16T09:28:51.935Z,29.20
2018-08-16T09:31:32.301Z,29.33
2018-08-16T09:34:21.115Z,29.49
2018-08-16T09:36:50.475Z,29.60
2018-08-16T09:39:20.003Z,29.87
2018-08-16T09:41:49.452Z,29.94
2018-08-16T09:44:18.284Z,30.10
2018-08-16T09:47:03.334Z,30.30
2018-08-16T09:49:33.598Z,30.72
2018-08-16T09:52:02.911Z,30.64
2018-08-16T09:54:31.784Z,30.95
2018-08-16T09:57:02.068Z,31.10
2018-08-16T09:59:31.191Z,31.30
2018-08-16T10:02:00.408Z,31.77
2018-08-16T10:04:29.593Z,31.92
2018-08-16T10:06:58.743Z,31.95
2018-08-16T10:09:28.908Z,32.12
2018-08-16T10:11:58.815Z,32.06
2018-08-16T10:14:27.786Z,31.99
2018-08-16T10:16:56.672Z,32.62
2018-08-16T10:19:26.115Z,32.69
2018-08-16T10:21:55.494Z,33.06
2018-08-16T10:24:24.267Z,32.67
2018-08-16T10:26:53.597Z,32.82
2018-08-16T10:29:22.602Z,33.16
2018-08-16T10:31:51.467Z,32.95
2018-08-16T10:34:20.493Z,32.96
2018-08-16T10:36:49.447Z,32.31
2018-08-16T10:39:19.139Z,32.82
2018-08-16T10:41:48.570Z,32.85
2018-08-16T10:44:17.531Z,32.61
2018-08-16T10:46:46.325Z,32.41
2018-08-16T10:49:15.312Z,31.87
2018-08-16T10:51:44.126Z,32.04
2018-08-16T10:54:12.959Z,32.23
2018-08-16T10:56:42.431Z,31.79
2018-08-16T10:59:11.733Z,32.19
2018-08-16T11:01:40.680Z,31.80
2018-08-16T11:04:09.818Z,31.69
2018-08-16T11:06:38.782Z,31.93
2018-08-16T11:09:09.422Z,32.06
2018-08-16T11:11:39.146Z,32.19
2018-08-16T11:14:08.171Z,31.78
2018-08-16T11:16:36.878Z,31.70
2018-08-16T11:19:05.995Z,31.82
2018-08-16T11:21:34.777Z,32.24
2018-08-16T11:24:03.899Z,32.70
2018-08-16T11:26:32.910Z,32.94
2018-08-16T11:29:01.894Z,33.41
2018-08-16T11:31:30.574Z,33.89
2018-08-16T11:33:59.864Z,33.83
2018-08-16T11:36:29.118Z,34.05
2018-08-16T11:38:58.178Z,34.21
2018-08-16T11:41:27.394Z,34.09
2018-08-16T11:43:57.178Z,33.84
2018-08-16T11:46:25.900Z,33.67
2018-08-16T11:48:54.850Z,33.73
2018-08-16T11:51:23.935Z,33.68
2018-08-16T11:53:52.951Z,34.24
2018-08-16T11:56:22.079Z,34.33
2018-08-16T11:58:50.996Z,33.80
2018-08-16T12:01:20.033Z,33.80
2018-08-16T12:03:49.580Z,32.99
2018-08-16T12:06:18.273Z,32.64
2018-08-16T12:08:47.387Z,33.03
2018-08-16T12:11:16.689Z,32.85
2018-08-16T12:13:45.395Z,33.02
2018-08-16T12:16:14.239Z,32.84
2018-08-16T12:18:43.019Z,32.38
2018-08-16T12:21:12.147Z,32.75
2018-08-16T12:23:41.247Z,33.06
2018-08-16T12:26:10.034Z,33.11
2018-08-16T12:28:39.051Z,33.18
2018-08-16T12:31:08.162Z,33.06
2018-08-16T12:33:37.388Z,32.85
2018-08-16T12:36:06.978Z,32.42
2018-08-16T12:38:35.921Z,32.36
2018-08-16T12:41:05.405Z,31.97
2018-08-16T12:43:36.054Z,31.24
2018-08-16T12:46:05.179Z,31.11
2018-08-16T12:48:34.202Z,31.06
2018-08-16T12:51:03.004Z,30.97
2018-08-16T12:53:32.236Z,30.58
2018-08-16T12:56:01.517Z,30.50
2018-08-16T12:58:30.381Z,30.52
2018-08-16T13:00:59.138Z,30.44
2018-08-16T13:03:28.386Z,30.53
2018-08-16T13:05:57.478Z,30.89
2018-08-16T13:08:26.701Z,31.36
2018-08-16T13:10:55.953Z,31.97
2018-08-16T13:13:24.723Z,32.28
2018-08-16T13:15:53.653Z,33.35
2018-08-16T13:18:22.401Z,33.63
2018-08-16T13:20:51.662Z,34.37
2018-08-16T13:23:20.544Z,34.99
2018-08-16T13:25:49.536Z,35.96
2018-08-16T13:28:18.630Z,35.81
2018-08-16T13:30:47.698Z,36.16
2018-08-16T13:33:16.690Z,36.47
2018-08-16T13:35:46.227Z,36.67
2018-08-16T13:38:15.120Z,36.58
2018-08-16T13:40:44.133Z,36.58
2018-08-16T13:43:13.319Z,37.22
2018-08-16T13:45:41.999Z,37.09
2018-08-16T13:48:10.759Z,37.27
2018-08-16T13:50:40.228Z,37.41
2018-08-16T13:53:09.402Z,36.87
2018-08-16T13:55:38.499Z,36.92
2018-08-16T13:58:07.910Z,37.20
2018-08-16T14:00:37.134Z,37.68
2018-08-16T14:03:06.176Z,37.58
2018-08-16T14:05:37.003Z,38.04
2018-08-16T14:08:06.130Z,37.90
2018-08-16T14:10:35.755Z,37.72
2018-08-16T14:13:04.675Z,37.69
2018-08-16T14:15:33.563Z,37.49
2018-08-16T14:18:02.863Z,37.79
2018-08-16T14:20:31.814Z,37.85
2018-08-16T14:23:00.600Z,37.73
2018-08-16T14:25:29.945Z,37.34
2018-08-16T14:27:58.912Z,37.34
2018-08-16T14:30:27.935Z,37.39
2018-08-16T14:32:57.343Z,37.39
2018-08-16T14:35:26.235Z,37.11
2018-08-16T14:37:55.115Z,37.23
2018-08-16T14:40:24.380Z,36.69
2018-08-16T14:42:53.342Z,35.94
2018-08-16T14:45:22.448Z,35.73
2018-08-16T14:47:52.011Z,36.17
2018-08-16T14:50:21.174Z,36.33
2018-08-16T14:52:50.156Z,35.33
2018-08-16T14:55:19.820Z,34.83
2018-08-16T14:57:48.580Z,33.92
2018-08-16T15:00:17.895Z,32.89
2018-08-16T15:02:46.974Z,32.17
2018-08-16T15:05:16.000Z,31.70
2018-08-16T15:07:45.053Z,32.01
2018-08-16T15:10:14.217Z,32.39
2018-08-16T15:12:42.918Z,32.80
2018-08-16T15:15:11.739Z,33.27
2018-08-16T15:17:40.867Z,33.53
2018-08-16T15:20:10.699Z,33.85
2018-08-16T15:22:39.639Z,34.33
2018-08-16T15:25:09.268Z,34.62
2018-08-16T15:27:38.093Z,34.68
2018-08-16T15:30:07.956Z,34.93
2018-08-16T15:32:37.286Z,35.03
2018-08-16T15:35:06.411Z,35.47
2018-08-16T15:37:35.381Z,35.73
2018-08-16T15:40:04.483Z,35.90
2018-08-16T15:42:33.252Z,36.18
2018-08-16T15:45:02.065Z,36.35
2018-08-16T15:47:31.534Z,36.57
2018-08-16T15:50:00.738Z,36.25
2018-08-16T15:52:29.761Z,35.62
2018-08-16T15:54:59.037Z,35.41
2018-08-16T15:57:28.180Z,35.46
2018-08-16T15:59:57.015Z,36.00
2018-08-16T16:02:25.959Z,35.93
2018-08-16T16:04:54.628Z,36.00
2018-08-16T16:07:23.505Z,36.08
2018-08-16T16:09:52.663Z,36.07
2018-08-16T16:12:21.343Z,35.66
2018-08-16T16:14:50.128Z,35.07
2018-08-16T16:17:19.181Z,34.12
2018-08-16T16:19:48.150Z,34.52
2018-08-16T16:22:17.128Z,34.49
2018-08-16T16:24:46.190Z,33.88
2018-08-16T16:27:15.167Z,33.71
2018-08-16T16:29:43.834Z,33.86
2018-08-16T16:32:12.662Z,33.88
2018-08-16T16:34:41.475Z,34.05
2018-08-16T16:37:10.188Z,34.35
2018-08-16T16:39:39.271Z,34.42
2018-08-16T16:42:08.194Z,34.09
2018-08-16T16:44:37.195Z,34.18
2018-08-16T16:47:07.331Z,34.01
2018-08-16T16:49:36.183Z,33.57
2018-08-16T16:52:05.203Z,33.32
2018-08-16T16:54:34.426Z,32.86
2018-08-16T16:57:03.589Z,32.88
2018-08-16T16:59:32.327Z,32.75
2018-08-16T17:02:01.856Z,32.45
2018-08-16T17:04:30.867Z,32.45
2018-08-16T17:06:59.646Z,32.21
2018-08-16T17:09:28.792Z,31.66
2018-08-16T17:11:57.842Z,31.36
2018-08-16T17:14:26.939Z,30.69
2018-08-16T17:16:56.445Z,30.76
2018-08-16T17:19:25.415Z,30.43
2018-08-16T17:21:54.162Z,30.09
2018-08-16T17:24:23.149Z,29.90
2018-08-16T17:26:52.000Z,29.88
2018-08-16T17:29:20.794Z,29.33
2018-08-16T17:31:49.667Z,29.47
2018-08-16T17:34:18.342Z,29.05
2018-08-16T17:36:47.111Z,29.00
2018-08-16T17:39:16.025Z,28.65
2018-08-16T17:41:44.887Z,28.61
2018-08-16T17:44:13.806Z,28.47
2018-08-16T17:46:43.060Z,28.28
2018-08-16T17:49:12.219Z,28.09
2018-08-16T17:51:40.817Z,27.91
2018-08-16T17:54:09.506Z,27.53
2018-08-16T17:56:38.222Z,27.32
2018-08-16T17:59:07.086Z,27.07
2018-08-16T18:01:36.695Z,27.08
2018-08-16T18:04:05.659Z,27.01
2018-08-16T18:06:34.427Z,26.83
2018-08-16T18:09:03.867Z,26.93
2018-08-16T18:11:32.743Z,26.93
2018-08-16T18:14:01.853Z,26.68
2018-08-16T18:16:31.155Z,26.74
2018-08-16T18:19:00.194Z,26.62
2018-08-16T18:21:29.339Z,26.51
2018-08-16T18:23:58.712Z,26.40
2018-08-16T18:26:28.166Z,26.33
2018-08-16T18:28:57.473Z,26.27
2018-08-16T18:31:27.179Z,26.24
2018-08-16T18:33:55.947Z,26.09
2018-08-16T18:36:24.904Z,25.88
2018-08-16T18:38:54.199Z,25.92
2018-08-16T18:41:23.304Z,25.79
2018-08-16T18:43:52.828Z,25.69
2018-08-16T18:46:22.816Z,25.60
2018-08-16T18:48:51.842Z,25.56
2018-08-16T18:51:20.683Z,25.52
2018-08-16T18:53:49.802Z,25.39
2018-08-16T18:56:18.864Z,25.18
2018-08-16T18:58:47.794Z,25.21
2018-08-16T19:01:17.122Z,25.21
2018-08-16T19:03:45.810Z,24.60
2018-08-16T19:06:14.543Z,24.39
2018-08-16T19:08:43.554Z,24.44
2018-08-16T19:11:12.648Z,24.40
2018-08-16T19:13:41.526Z,24.26
2018-08-16T19:16:10.362Z,23.76
2018-08-16T19:18:39.099Z,23.88
2018-08-16T19:21:07.788Z,23.95
2018-08-16T19:23:36.724Z,23.94
2018-08-16T19:26:05.556Z,23.84
2018-08-16T19:28:34.500Z,23.74
2018-08-16T19:31:03.679Z,23.21
2018-08-16T19:33:32.414Z,23.23
2018-08-16T19:36:01.187Z,23.09
2018-08-16T19:38:30.375Z,23.32
2018-08-16T19:40:59.454Z,23.04
2018-08-16T19:43:28.179Z,23.31
2018-08-16T19:45:57.218Z,22.97
2018-08-16T19:48:26.395Z,22.68
2018-08-16T19:50:55.249Z,22.80
2018-08-16T19:53:24.252Z,22.78
2018-08-16T19:55:53.086Z,22.00
2018-08-16T19:58:21.832Z,22.39
2018-08-16T20:00:51.373Z,22.41
2018-08-16T20:03:20.035Z,22.34
2018-08-16T20:05:48.834Z,22.23
2018-08-16T20:08:17.861Z,22.15
2018-08-16T20:10:47.045Z,22.09
2018-08-16T20:13:16.125Z,22.20
2018-08-16T20:15:45.343Z,22.18
2018-08-16T20:18:14.549Z,21.87
2018-08-16T20:20:43.280Z,21.72
2018-08-16T20:23:12.477Z,22.06
2018-08-16T20:25:41.476Z,22.09
2018-08-16T20:28:10.421Z,21.74
2018-08-16T20:30:39.739Z,21.74
2018-08-16T20:33:08.466Z,21.89
2018-08-16T20:35:37.231Z,22.06
2018-08-16T20:38:06.348Z,21.80
2018-08-16T20:40:35.196Z,21.89
2018-08-16T20:43:04.286Z,21.83
2018-08-16T20:45:33.501Z,21.79
2018-08-16T20:48:02.401Z,21.75
2018-08-16T20:50:31.357Z,21.71
2018-08-16T20:53:00.590Z,21.68
2018-08-16T20:55:29.457Z,21.73
2018-08-16T20:57:58.503Z,21.70
2018-08-16T21:00:27.792Z,21.48
2018-08-16T21:02:56.498Z,21.58
2018-08-16T21:05:25.259Z,21.39
2018-08-16T21:07:54.048Z,21.35
2018-08-16T21:10:23.069Z,21.44
2018-08-16T21:12:51.793Z,21.13
2018-08-16T21:15:20.725Z,21.17
2018-08-16T21:17:49.786Z,21.41
2018-08-16T21:20:18.911Z,21.16
2018-08-16T21:22:48.412Z,21.07
2018-08-16T21:25:17.336Z,21.20
2018-08-16T21:27:46.195Z,21.34
2018-08-16T21:30:15.605Z,21.10
2018-08-16T21:32:44.284Z,21.06
2018-08-16T21:35:12.986Z,20.96
2018-08-16T21:37:42.003Z,20.90
2018-08-16T21:40:10.845Z,21.00
2018-08-16T21:42:40.017Z,20.83
2018-08-16T21:45:09.304Z,20.79
2018-08-16T21:47:38.423Z,20.88
2018-08-16T21:50:08.299Z,20.66
2018-08-16T21:52:37.590Z,20.55
2018-08-16T21:55:06.400Z,20.48
2018-08-16T21:57:35.233Z,20.37
2018-08-16T22:00:04.113Z,20.31
2018-08-16T22:02:32.957Z,20.50
2018-08-16T22:05:01.794Z,20.40
2018-08-16T22:08:13.238Z,20.25
2018-08-16T22:10:43.757Z,20.10
2018-08-16T22:13:12.935Z,19.83
2018-08-16T22:15:42.021Z,19.96
2018-08-16T22:18:11.127Z,19.90
2018-08-16T22:20:40.376Z,20.02
2018-08-16T22:23:09.534Z,19.90
2018-08-16T22:25:38.820Z,20.05
2018-08-16T22:28:08.445Z,19.99
2018-08-16T22:30:37.696Z,19.92
2018-08-16T22:33:06.562Z,19.75
2018-08-16T22:35:35.922Z,19.93
2018-08-16T22:38:04.659Z,20.09
2018-08-16T22:40:33.520Z,20.07
2018-08-16T22:43:03.025Z,19.88
2018-08-16T22:45:31.859Z,19.91
2018-08-16T22:48:00.793Z,19.94
2018-08-16T22:50:29.901Z,20.08
2018-08-16T22:52:58.765Z,20.43
2018-08-16T22:55:28.056Z,20.37
2018-08-16T22:57:57.467Z,20.06
2018-08-16T23:00:26.764Z,19.90
2018-08-16T23:02:55.555Z,20.06
2018-08-16T23:05:24.646Z,19.84
2018-08-16T23:07:53.528Z,19.96
2018-08-16T23:10:22.871Z,20.05
2018-08-16T23:12:52.451Z,20.01
2018-08-16T23:15:21.531Z,19.80
2018-08-16T23:17:50.622Z,19.74
2018-08-16T23:20:20.063Z,19.57
2018-08-16T23:22:49.350Z,19.43
2018-08-16T23:25:18.551Z,19.46
2018-08-16T23:27:48.080Z,19.44
2018-08-16T23:30:17.562Z,19.33
2018-08-16T23:32:46.370Z,19.53
2018-08-16T23:35:15.515Z,19.61
2018-08-16T23:37:44.367Z,19.35
2018-08-16T23:40:14.387Z,19.37
2018-08-16T23:42:43.992Z,19.19
2018-08-16T23:45:13.027Z,19.06
2018-08-16T23:47:42.416Z,19.13
2018-08-16T23:50:12.242Z,19.07
2018-08-16T23:52:41.268Z,19.15
2018-08-16T23:55:10.475Z,19.09
2018-08-16T23:57:39.567Z,19.14
